Terminal Aerodrome Forecast
Issued by NWS Albuquerque, NM

Home | Current Version | Previous Version | Text Only | Print | Product List | Glossary On
Versions: 1 2 3 4 5 6 7 8 9 10 11 12 13 14 15 16 17 18
000
FTUS45 KABQ 291741
TAFABQ
TAF
KABQ 291741Z 2918/3018 26010KT P6SM BKN050 BKN100
     FM292000 27013G23KT P6SM VCSH BKN060
     FM300300 28010KT P6SM VCSH BKN080
     FM300800 22006KT P6SM SCT080 BKN150=

USA.gov is the U.S. government's official web portal to all federal, state and local government web resources and services.